Time;durP1;ratioP1;P1;durP2;ratioP2;P2;SDS_P1;SDS_P2;PMS_P1;PMS_P2;Temp;Humidity;BMP_temperature;BMP_pressure;BME280_temperature;BME280_humidity;BME280_pressure;Samples;Min_cycle;Max_cycle;Signal;HPM_P1;HPM_P2
2022/07/31 00:00:27;;;;;;;1.70;1.60;;;26.40;45.50;;;;;;5020407;28;20535;-67
2022/07/31 00:02:55;;;;;;;2.10;2.00;;;26.40;45.50;;;;;;5026559;28;20447;-65
2022/07/31 00:05:24;;;;;;;2.10;1.90;;;26.40;45.50;;;;;;5018143;28;20906;-65
2022/07/31 00:07:53;;;;;;;2.10;2.00;;;26.40;45.40;;;;;;5025822;28;20428;-67
2022/07/31 00:10:21;;;;;;;1.57;1.47;;;26.50;45.60;;;;;;5012546;28;20477;-66
2022/07/31 00:12:50;;;;;;;1.63;1.53;;;26.40;46.70;;;;;;5033566;28;20523;-67
2022/07/31 00:15:20;;;;;;;1.77;1.60;;;26.40;45.50;;;;;;5014143;28;20480;-67
2022/07/31 00:17:49;;;;;;;1.60;1.50;;;26.50;45.60;;;;;;5020472;28;20853;-66
2022/07/31 00:20:18;;;;;;;1.50;1.40;;;26.40;45.60;;;;;;5014049;28;20473;-67
2022/07/31 00:22:48;;;;;;;1.70;1.60;;;26.40;45.50;;;;;;5029524;28;20554;-67
2022/07/31 00:25:17;;;;;;;1.63;1.53;;;26.40;45.50;;;;;;5013544;28;20479;-67
2022/07/31 00:27:46;;;;;;;1.80;1.70;;;26.40;45.40;;;;;;5025372;28;20424;-66
2022/07/31 00:30:15;;;;;;;1.83;1.63;;;26.40;45.40;;;;;;5024259;28;20881;-67
2022/07/31 00:32:45;;;;;;;1.90;1.80;;;26.40;45.40;;;;;;5020634;28;20937;-67
2022/07/31 00:35:16;;;;;;;2.00;1.90;;;26.40;45.30;;;;;;5022227;28;20508;-67
2022/07/31 00:37:44;;;;;;;2.00;1.90;;;26.40;45.30;;;;;;5019286;28;20464;-67
2022/07/31 00:40:14;;;;;;;2.00;1.90;;;26.40;45.30;;;;;;5025090;28;20504;-67
2022/07/31 00:42:43;;;;;;;2.30;2.20;;;26.40;45.30;;;;;;5016562;28;20428;-67
2022/07/31 00:45:12;;;;;;;2.20;2.00;;;26.40;45.30;;;;;;5027656;28;20470;-66
2022/07/31 00:47:41;;;;;;;1.90;1.80;;;26.40;45.30;;;;;;5018764;28;20504;-67
2022/07/31 00:50:11;;;;;;;1.70;1.60;;;26.40;45.30;;;;;;5020836;28;20487;-67
2022/07/31 00:52:39;;;;;;;2.07;1.83;;;26.40;45.40;;;;;;5032945;28;20458;-68
2022/07/31 00:55:08;;;;;;;2.20;1.73;;;26.40;45.40;;;;;;5021168;28;20468;-66
2022/07/31 00:57:37;;;;;;;3.10;2.90;;;26.40;45.30;;;;;;5028750;28;20510;-66
2022/07/31 01:00:06;;;;;;;2.50;1.97;;;26.40;45.10;;;;;;5019573;28;20552;-66
2022/07/31 01:02:35;;;;;;;2.20;2.00;;;26.50;45.20;;;;;;5012299;28;20455;-67
2022/07/31 01:05:04;;;;;;;2.00;1.90;;;26.40;45.20;;;;;;5017868;28;20461;-67
2022/07/31 01:07:34;;;;;;;2.10;2.00;;;26.40;45.40;;;;;;5031209;28;20462;-67
2022/07/31 01:10:07;;;;;;;2.03;1.93;;;26.40;45.20;;;;;;5020466;28;21009;-67
2022/07/31 01:12:44;;;;;;;2.27;2.13;;;26.40;45.10;;;;;;5017411;28;20445;-67
2022/07/31 01:15:15;;;;;;;1.80;1.70;;;26.40;45.10;;;;;;5013095;28;20473;-67
2022/07/31 01:17:46;;;;;;;1.90;1.80;;;26.40;45.10;;;;;;5031626;28;20444;-67
2022/07/31 01:20:16;;;;;;;2.33;2.23;;;26.40;45.10;;;;;;5016258;28;20473;-67
2022/07/31 01:23:04;;;;;;;1.83;1.73;;;26.40;45.00;;;;;;5015120;28;20491;-66
2022/07/31 01:25:53;;;;;;;1.70;1.60;;;26.40;45.10;;;;;;5017170;28;20560;-67
2022/07/31 01:28:53;;;;;;;2.00;1.90;;;26.40;45.20;;;;;;5037963;28;20464;-67
2022/07/31 01:31:30;;;;;;;2.17;1.97;;;26.40;45.10;;;;;;5008418;28;20469;-67
2022/07/31 01:34:05;;;;;;;2.10;2.00;;;26.40;45.00;;;;;;5016734;28;20526;-68
2022/07/31 01:36:36;;;;;;;1.93;1.83;;;26.40;45.10;;;;;;5021613;28;20447;-67
2022/07/31 01:39:05;;;;;;;1.93;1.83;;;26.40;44.90;;;;;;5019818;28;20444;-67
2022/07/31 01:41:37;;;;;;;1.83;1.73;;;26.40;45.00;;;;;;5029962;28;20539;-68
2022/07/31 01:44:07;;;;;;;2.00;1.90;;;26.40;45.10;;;;;;5030529;28;20428;-67
2022/07/31 01:46:44;;;;;;;2.40;2.20;;;26.40;45.10;;;;;;5029297;28;20443;-65
2022/07/31 01:49:17;;;;;;;1.77;1.67;;;26.40;45.10;;;;;;4997579;28;20520;-67
2022/07/31 01:51:47;;;;;;;1.90;1.80;;;26.40;45.10;;;;;;5016404;28;20460;-66
2022/07/31 01:54:19;;;;;;;2.13;1.93;;;26.40;45.30;;;;;;5024784;28;20516;-66
2022/07/31 01:56:49;;;;;;;2.77;2.57;;;26.40;44.80;;;;;;5031905;28;20513;-67
2022/07/31 01:59:20;;;;;;;2.03;1.93;;;26.40;45.10;;;;;;4996172;28;20547;-67
2022/07/31 02:02:10;;;;;;;1.77;1.67;;;26.40;45.20;;;;;;5013548;28;20480;-68
2022/07/31 02:04:39;;;;;;;2.20;2.00;;;26.40;45.30;;;;;;5021420;28;20483;-67
2022/07/31 02:07:08;;;;;;;3.17;2.20;;;26.40;45.30;;;;;;5022172;28;20490;-67
2022/07/31 02:09:37;;;;;;;1.60;1.50;;;26.40;45.30;;;;;;5012698;28;20485;-67
2022/07/31 02:12:28;;;;;;;2.10;1.83;;;26.40;45.30;;;;;;5016179;28;20806;-67
2022/07/31 02:15:02;;;;;;;1.90;1.80;;;26.40;45.30;;;;;;5008415;28;20486;-67
2022/07/31 02:17:33;;;;;;;1.87;1.77;;;26.40;45.40;;;;;;5023226;28;20510;-68
2022/07/31 02:20:21;;;;;;;1.70;1.60;;;26.40;45.40;;;;;;5022341;28;20606;-67
2022/07/31 02:22:50;;;;;;;1.83;1.73;;;26.40;45.50;;;;;;5015928;28;20444;-66
2022/07/31 02:25:19;;;;;;;2.10;2.00;;;26.40;45.40;;;;;;5025516;28;20510;-67
2022/07/31 02:27:49;;;;;;;2.10;1.87;;;26.40;45.40;;;;;;5025197;28;21145;-67
2022/07/31 02:30:28;;;;;;;1.80;1.70;;;26.40;45.50;;;;;;5025975;28;20484;-67
2022/07/31 02:33:13;;;;;;;1.50;1.40;;;26.40;45.20;;;;;;5007358;28;20448;-66
2022/07/31 02:35:44;;;;;;;1.47;1.37;;;26.40;45.20;;;;;;5006309;28;20852;-67
2022/07/31 02:38:18;;;;;;;2.50;2.30;;;26.40;45.30;;;;;;5017363;28;20440;-67
2022/07/31 02:40:55;;;;;;;1.63;1.53;;;26.40;45.40;;;;;;5022970;28;20525;-67
2022/07/31 02:43:25;;;;;;;1.73;1.63;;;26.40;45.40;;;;;;5013831;28;20446;-67
2022/07/31 02:45:55;;;;;;;1.90;1.80;;;26.40;45.40;;;;;;5021812;28;20507;-67
2022/07/31 02:48:27;;;;;;;1.67;1.57;;;26.40;45.30;;;;;;5009979;28;20445;-67
2022/07/31 02:50:59;;;;;;;2.17;2.00;;;26.40;45.10;;;;;;5020775;28;20475;-66
2022/07/31 02:53:29;;;;;;;2.20;2.00;;;26.40;45.10;;;;;;5029934;28;20518;-67
2022/07/31 02:56:03;;;;;;;1.57;1.47;;;26.30;45.00;;;;;;5011953;28;20473;-67
2022/07/31 02:58:33;;;;;;;1.80;1.70;;;26.40;45.10;;;;;;5029552;28;20432;-67
2022/07/31 03:01:03;;;;;;;2.80;1.90;;;26.40;45.40;;;;;;5011001;28;20491;-67
2022/07/31 03:03:35;;;;;;;1.60;1.50;;;26.30;45.20;;;;;;5034297;28;20821;-67
2022/07/31 03:06:03;;;;;;;2.07;1.97;;;26.40;45.30;;;;;;5025718;28;20531;-67
2022/07/31 03:08:33;;;;;;;1.53;1.43;;;26.40;45.20;;;;;;5036717;28;20441;-67
2022/07/31 03:11:06;;;;;;;1.53;1.43;;;26.40;45.10;;;;;;5028606;28;20480;-67
2022/07/31 03:13:36;;;;;;;2.03;1.90;;;26.30;45.10;;;;;;5022060;28;20809;-67
2022/07/31 03:16:10;;;;;;;1.80;1.70;;;26.30;45.20;;;;;;5021420;28;20560;-67
2022/07/31 03:18:41;;;;;;;1.80;1.70;;;26.30;45.10;;;;;;5019281;28;20440;-68
2022/07/31 03:21:10;;;;;;;1.50;1.40;;;26.30;45.00;;;;;;5025783;28;20480;-67
2022/07/31 03:23:40;;;;;;;2.30;1.97;;;26.30;44.90;;;;;;5030817;28;20439;-67
2022/07/31 03:26:14;;;;;;;1.70;1.60;;;26.30;45.00;;;;;;5025208;28;20495;-67
2022/07/31 03:28:42;;;;;;;1.80;1.70;;;26.30;45.10;;;;;;5028391;28;20435;-67
2022/07/31 03:31:10;;;;;;;1.90;1.80;;;26.30;45.20;;;;;;5013159;28;20486;-67
2022/07/31 03:33:41;;;;;;;2.03;1.70;;;26.30;45.60;;;;;;5033234;28;20440;-67
2022/07/31 03:36:09;;;;;;;2.23;2.00;;;26.30;45.10;;;;;;5023105;28;20519;-66
2022/07/31 03:38:37;;;;;;;1.90;1.80;;;26.30;45.10;;;;;;4997440;28;20437;-67
2022/07/31 03:41:24;;;;;;;1.93;1.83;;;26.30;45.00;;;;;;5020303;28;20488;-67
2022/07/31 03:43:53;;;;;;;1.60;1.50;;;26.30;45.10;;;;;;5029771;28;20436;-67
2022/07/31 03:46:23;;;;;;;1.93;1.83;;;26.30;45.10;;;;;;5023991;28;20436;-66
2022/07/31 03:48:53;;;;;;;1.60;1.50;;;26.30;45.10;;;;;;5018917;28;20449;-66
2022/07/31 03:51:24;;;;;;;1.30;1.20;;;26.30;45.10;;;;;;5023400;28;20930;-67
2022/07/31 03:53:52;;;;;;;1.60;1.50;;;26.30;45.30;;;;;;5032335;28;20444;-70
2022/07/31 03:56:52;;;;;;;1.90;1.80;;;26.30;45.30;;;;;;5017144;28;20436;-66
2022/07/31 03:59:22;;;;;;;1.53;1.43;;;26.30;45.30;;;;;;5015888;28;20547;-66
2022/07/31 04:01:50;;;;;;;1.40;1.30;;;26.30;45.10;;;;;;5021177;28;20455;-68
2022/07/31 04:04:43;;;;;;;1.60;1.50;;;26.30;45.30;;;;;;5011852;28;20548;-67
2022/07/31 04:07:11;;;;;;;1.93;1.83;;;26.30;45.40;;;;;;5017513;28;20440;-67
2022/07/31 04:09:39;;;;;;;1.80;1.70;;;26.30;45.40;;;;;;5008295;28;20499;-67
2022/07/31 04:12:10;;;;;;;1.60;1.50;;;26.30;45.20;;;;;;5016906;28;20507;-67
2022/07/31 04:14:38;;;;;;;1.63;1.53;;;26.30;45.40;;;;;;5030536;28;20857;-67
2022/07/31 04:17:06;;;;;;;1.83;1.63;;;26.30;45.40;;;;;;5023695;28;20436;-67
2022/07/31 04:19:34;;;;;;;1.70;1.30;;;26.30;45.40;;;;;;5014334;28;20559;-67
2022/07/31 04:22:04;;;;;;;1.60;1.50;;;26.30;45.40;;;;;;5031831;28;20527;-67
2022/07/31 04:24:34;;;;;;;1.80;1.63;;;26.30;45.60;;;;;;5022365;28;20487;-66
2022/07/31 04:27:09;;;;;;;1.70;1.60;;;26.30;45.60;;;;;;5016936;28;20445;-67
2022/07/31 04:29:44;;;;;;;1.67;1.57;;;26.20;45.60;;;;;;5004491;28;20556;-67
2022/07/31 04:32:12;;;;;;;1.43;1.33;;;26.20;45.60;;;;;;5025023;28;20481;-67
2022/07/31 04:34:47;;;;;;;2.03;1.83;;;26.30;45.70;;;;;;5032120;28;20897;-66
2022/07/31 04:37:16;;;;;;;1.80;1.70;;;26.20;45.60;;;;;;5023328;28;20958;-68
2022/07/31 04:39:45;;;;;;;1.50;1.40;;;26.20;45.60;;;;;;5015799;28;20563;-67
2022/07/31 04:42:14;;;;;;;1.50;1.40;;;26.30;45.60;;;;;;5017734;28;20488;-67
2022/07/31 04:44:43;;;;;;;1.83;1.67;;;26.20;45.60;;;;;;5028207;28;20552;-67
2022/07/31 04:47:12;;;;;;;1.40;1.30;;;26.20;45.50;;;;;;5013513;28;20931;-67
2022/07/31 04:49:43;;;;;;;1.83;1.73;;;26.20;45.60;;;;;;5011136;28;20555;-67
2022/07/31 04:52:18;;;;;;;2.07;1.50;;;26.20;45.60;;;;;;5013477;28;20445;-66
2022/07/31 04:54:48;;;;;;;1.87;1.77;;;26.20;45.60;;;;;;4998294;28;20569;-67
2022/07/31 04:57:16;;;;;;;1.80;1.70;;;26.20;45.60;;;;;;5009522;28;20925;-67
2022/07/31 04:59:49;;;;;;;3.10;2.10;;;26.20;45.60;;;;;;5026704;28;20475;-66
2022/07/31 05:02:31;;;;;;;1.50;1.40;;;26.20;45.50;;;;;;5018031;28;20441;-66
2022/07/31 05:04:59;;;;;;;1.37;1.27;;;26.20;45.60;;;;;;5017190;28;20468;-67
2022/07/31 05:07:35;;;;;;;1.67;1.57;;;26.20;45.70;;;;;;5020116;28;20476;-66
2022/07/31 05:11:21;;;;;;;1.43;1.33;;;26.20;45.60;;;;;;5003810;28;20509;-66
2022/07/31 05:12:57;;;;;;;1.80;1.70;;;26.20;45.60;;;;;;4997015;28;20473;-67
2022/07/31 05:15:25;;;;;;;1.83;1.73;;;26.20;45.60;;;;;;4993256;28;20813;-67
2022/07/31 05:17:54;;;;;;;1.67;1.57;;;26.20;45.60;;;;;;5030636;28;20533;-67
2022/07/31 05:20:55;;;;;;;2.30;1.60;;;26.20;45.40;;;;;;4996827;28;20488;-66
2022/07/31 05:23:51;;;;;;;2.20;1.63;;;26.10;45.40;;;;;;5012267;28;20572;-66
2022/07/31 05:26:37;;;;;;;1.33;1.10;;;26.10;45.40;;;;;;5005332;28;20456;-66
2022/07/31 05:29:06;;;;;;;1.47;1.30;;;26.10;45.40;;;;;;5021180;28;20439;-67
2022/07/31 05:31:34;;;;;;;1.50;1.40;;;26.20;45.70;;;;;;5022154;28;20483;-66
2022/07/31 05:34:02;;;;;;;1.47;1.37;;;26.10;45.40;;;;;;5015130;28;20518;-66
2022/07/31 05:36:31;;;;;;;1.60;1.50;;;26.20;45.70;;;;;;5028222;28;20527;-67
2022/07/31 05:39:00;;;;;;;1.50;1.40;;;26.20;45.70;;;;;;5023311;28;20513;-66
2022/07/31 05:41:40;;;;;;;1.57;1.47;;;26.20;45.70;;;;;;5008345;28;20498;-66
2022/07/31 05:44:11;;;;;;;1.80;1.70;;;26.20;45.70;;;;;;5023651;28;20983;-66
2022/07/31 05:46:42;;;;;;;1.63;1.53;;;26.10;45.70;;;;;;5018147;28;20445;-67
2022/07/31 05:49:10;;;;;;;1.67;1.57;;;26.10;45.50;;;;;;5014081;28;20445;-67
2022/07/31 05:51:38;;;;;;;1.90;1.80;;;26.10;45.60;;;;;;5037443;28;20450;-66
2022/07/31 05:54:08;;;;;;;1.53;1.43;;;26.10;45.50;;;;;;5014402;28;20503;-66
2022/07/31 05:56:54;;;;;;;1.70;1.60;;;26.10;45.50;;;;;;5017149;28;20484;-67
2022/07/31 05:59:31;;;;;;;1.60;1.50;;;26.10;45.60;;;;;;5010780;28;20555;-66
2022/07/31 06:01:59;;;;;;;1.70;1.60;;;26.10;45.60;;;;;;5013238;28;20449;-66
2022/07/31 06:04:30;;;;;;;1.70;1.60;;;26.10;45.60;;;;;;5013750;28;20482;-68
2022/07/31 06:06:59;;;;;;;1.87;1.70;;;26.10;45.60;;;;;;5025201;28;20494;-67
2022/07/31 06:09:29;;;;;;;1.70;1.60;;;26.10;45.50;;;;;;5019262;28;20499;-67
2022/07/31 06:11:57;;;;;;;1.80;1.67;;;26.10;45.50;;;;;;5031870;28;20433;-68
2022/07/31 06:14:26;;;;;;;1.70;1.50;;;26.00;45.40;;;;;;5029835;28;20467;-67
2022/07/31 06:17:10;;;;;;;2.57;1.80;;;26.00;45.50;;;;;;5027452;28;21006;-67
2022/07/31 06:19:39;;;;;;;2.00;1.80;;;26.00;45.70;;;;;;5010876;28;21155;-66
2022/07/31 06:22:07;;;;;;;1.77;1.67;;;26.10;45.60;;;;;;5010136;28;20442;-67
2022/07/31 06:24:38;;;;;;;1.50;1.40;;;26.00;46.80;;;;;;5012422;28;20480;-68
2022/07/31 06:27:10;;;;;;;1.90;1.80;;;26.00;45.60;;;;;;5021695;28;20424;-67
2022/07/31 06:29:50;;;;;;;1.60;1.50;;;26.00;45.70;;;;;;5012793;28;20895;-66
2022/07/31 06:32:19;;;;;;;1.73;1.63;;;26.00;45.80;;;;;;5011277;28;20441;-67
2022/07/31 06:34:47;;;;;;;1.60;1.50;;;26.00;45.70;;;;;;4996755;28;20958;-67
2022/07/31 06:37:15;;;;;;;1.60;1.50;;;26.00;45.80;;;;;;5007473;28;20840;-66
2022/07/31 06:39:45;;;;;;;2.23;2.03;;;26.00;45.90;;;;;;5013105;28;20484;-67
2022/07/31 06:42:43;;;;;;;1.97;1.67;;;26.00;45.90;;;;;;5023679;28;20432;-67
2022/07/31 06:45:14;;;;;;;1.97;1.57;;;26.00;46.00;;;;;;5028031;28;20555;-67
2022/07/31 06:48:20;;;;;;;2.00;1.60;;;25.90;45.90;;;;;;5021443;28;20930;-67
2022/07/31 06:51:00;;;;;;;1.80;1.70;;;25.90;45.90;;;;;;5025099;28;20463;-68
2022/07/31 06:53:48;;;;;;;2.70;2.07;;;25.90;45.90;;;;;;5015610;28;20494;-67
2022/07/31 06:56:18;;;;;;;2.00;1.77;;;25.90;45.90;;;;;;5008414;28;20479;-68
2022/07/31 06:58:46;;;;;;;1.73;1.63;;;25.80;45.80;;;;;;5007331;28;20502;-67
2022/07/31 07:01:14;;;;;;;2.90;1.80;;;25.80;46.00;;;;;;5030998;28;20476;-68
2022/07/31 07:03:42;;;;;;;1.93;1.83;;;25.80;46.00;;;;;;5031619;28;20459;-68
2022/07/31 07:06:10;;;;;;;2.00;1.80;;;25.80;46.20;;;;;;5036615;28;20472;-67
2022/07/31 07:08:39;;;;;;;1.70;1.60;;;25.80;46.30;;;;;;5032177;28;20442;-67
2022/07/31 07:11:07;;;;;;;3.40;1.60;;;25.80;46.50;;;;;;5041795;28;20479;-67
2022/07/31 07:13:42;;;;;;;2.30;1.70;;;25.70;46.60;;;;;;5024293;28;20429;-67
2022/07/31 07:16:16;;;;;;;1.70;1.60;;;25.70;46.70;;;;;;5031494;28;20559;-67
2022/07/31 07:18:45;;;;;;;1.77;1.63;;;25.70;46.80;;;;;;5018868;28;20490;-68
2022/07/31 07:21:14;;;;;;;3.80;3.03;;;25.70;47.00;;;;;;5025840;28;20533;-67
2022/07/31 07:23:42;;;;;;;2.30;2.10;;;25.70;47.30;;;;;;5017164;28;20442;-68
2022/07/31 07:26:25;;;;;;;5.00;2.37;;;25.60;47.30;;;;;;5026210;28;20512;-67
2022/07/31 07:28:55;;;;;;;1.70;1.60;;;25.60;47.60;;;;;;5024911;28;20947;-68
2022/07/31 07:31:24;;;;;;;4.10;1.93;;;25.50;47.60;;;;;;5015080;28;20468;-68
2022/07/31 07:33:52;;;;;;;2.70;1.40;;;25.50;47.70;;;;;;5010603;28;20489;-68
2022/07/31 07:36:23;;;;;;;2.43;2.00;;;25.50;47.90;;;;;;5026911;28;20547;-68
2022/07/31 07:39:11;;;;;;;2.73;1.80;;;25.40;48.00;;;;;;5011317;28;20464;-68
2022/07/31 07:41:41;;;;;;;2.47;1.33;;;25.40;48.30;;;;;;5011586;28;20441;-67
2022/07/31 07:44:14;;;;;;;2.53;2.00;;;25.40;48.30;;;;;;5023792;28;20437;-67
2022/07/31 07:46:43;;;;;;;1.60;1.33;;;25.40;48.30;;;;;;5012203;28;20432;-67
2022/07/31 07:49:14;;;;;;;2.37;1.50;;;25.40;48.30;;;;;;5037180;28;20498;-67
2022/07/31 07:51:53;;;;;;;4.57;2.40;;;25.40;48.30;;;;;;5015576;28;20452;-67
2022/07/31 07:54:33;;;;;;;2.07;1.40;;;25.40;48.70;;;;;;5013121;28;20994;-66
2022/07/31 07:57:20;;;;;;;1.43;1.10;;;25.40;48.60;;;;;;5020645;28;20468;-66
2022/07/31 08:00:28;;;;;;;1.70;1.60;;;25.40;48.50;;;;;;5016825;28;20887;-67
2022/07/31 08:03:01;;;;;;;1.60;1.30;;;25.40;48.50;;;;;;5014785;28;20854;-67
2022/07/31 08:05:49;;;;;;;2.33;1.30;;;25.40;48.50;;;;;;5040535;28;21083;-67
2022/07/31 08:08:17;;;;;;;2.03;1.70;;;25.40;48.50;;;;;;5016236;28;20419;-67
2022/07/31 08:11:05;;;;;;;2.70;1.57;;;25.40;48.60;;;;;;5008478;28;20468;-67
2022/07/31 08:13:56;;;;;;;2.60;1.80;;;25.50;48.60;;;;;;5020960;28;20839;-67
2022/07/31 08:16:44;;;;;;;1.47;1.33;;;25.50;48.40;;;;;;5008369;28;20461;-67
2022/07/31 08:19:12;;;;;;;1.00;0.90;;;25.50;48.50;;;;;;5010117;28;20503;-66
2022/07/31 08:21:41;;;;;;;1.50;1.30;;;25.50;48.40;;;;;;5013722;28;20492;-66
2022/07/31 08:24:10;;;;;;;1.50;1.40;;;25.50;48.40;;;;;;5000702;28;20445;-66
2022/07/31 08:29:24;;;;;;;0.90;0.83;;;25.50;48.60;;;;;;5020505;28;20473;-67
2022/07/31 08:32:00;;;;;;;1.57;1.47;;;25.50;49.80;;;;;;5026556;28;20510;-66
2022/07/31 08:34:48;;;;;;;1.30;1.20;;;25.60;48.60;;;;;;5011193;28;20472;-67
2022/07/31 08:37:18;;;;;;;1.37;1.20;;;25.50;49.70;;;;;;5042611;28;20476;-67
2022/07/31 08:40:07;;;;;;;1.90;1.40;;;25.60;48.30;;;;;;5014769;28;21070;-67
2022/07/31 08:42:36;;;;;;;1.30;1.20;;;25.60;49.40;;;;;;5045511;28;20459;-67
2022/07/31 08:45:06;;;;;;;1.10;1.00;;;25.60;48.20;;;;;;5014920;28;20515;-66
2022/07/31 08:47:44;;;;;;;1.37;1.00;;;25.60;48.20;;;;;;5046002;28;20527;-67
2022/07/31 08:50:15;;;;;;;0.90;0.90;;;25.60;48.20;;;;;;5021388;28;20878;-67
2022/07/31 08:52:45;;;;;;;1.20;1.10;;;25.60;48.20;;;;;;5023093;28;20507;-67
2022/07/31 08:55:37;;;;;;;1.07;0.90;;;25.50;48.10;;;;;;5019677;28;20461;-67
2022/07/31 08:58:24;;;;;;;1.00;0.90;;;25.60;48.10;;;;;;5028807;28;20490;-67
2022/07/31 09:00:53;;;;;;;1.43;0.90;;;25.60;48.30;;;;;;5010576;28;20498;-67
2022/07/31 09:03:23;;;;;;;2.00;1.17;;;25.50;48.10;;;;;;4996096;28;20508;-67
2022/07/31 09:05:55;;;;;;;1.13;1.03;;;25.50;48.20;;;;;;5011332;28;20519;-67
2022/07/31 09:08:24;;;;;;;0.97;0.87;;;25.50;48.20;;;;;;5005066;28;20437;-67
2022/07/31 09:11:02;;;;;;;1.13;0.70;;;25.60;48.20;;;;;;5029668;28;20473;-66
2022/07/31 09:13:36;;;;;;;1.10;0.93;;;25.50;48.20;;;;;;5030813;28;20424;-67
2022/07/31 09:16:21;;;;;;;2.03;1.07;;;25.50;48.20;;;;;;5017922;28;20483;-66
2022/07/31 09:19:01;;;;;;;2.30;1.00;;;25.60;48.20;;;;;;5021498;28;20475;-66
2022/07/31 09:21:39;;;;;;;1.30;0.83;;;25.50;48.10;;;;;;5041909;28;20460;-67
2022/07/31 09:24:08;;;;;;;1.63;1.00;;;25.50;48.10;;;;;;5003508;28;21010;-67
2022/07/31 09:26:39;;;;;;;1.13;1.03;;;25.60;48.10;;;;;;5026361;28;20452;-67
2022/07/31 09:29:10;;;;;;;1.33;1.20;;;25.60;48.10;;;;;;5016714;28;20533;-67
2022/07/31 09:31:40;;;;;;;2.07;1.30;;;25.60;48.20;;;;;;5039616;28;20633;-67
2022/07/31 09:34:48;;;;;;;1.63;1.20;;;25.60;49.50;;;;;;5007182;28;20510;-67
2022/07/31 09:37:19;;;;;;;1.80;1.50;;;25.60;48.20;;;;;;5014317;28;20504;-67
2022/07/31 09:40:13;;;;;;;2.07;1.60;;;25.50;48.30;;;;;;5005299;28;20481;-63
2022/07/31 09:43:14;;;;;;;1.20;1.07;;;25.60;48.30;;;;;;4971679;28;20945;-66
2022/07/31 09:45:45;;;;;;;1.80;1.20;;;25.60;48.20;;;;;;5019820;28;20976;-66
2022/07/31 09:48:15;;;;;;;1.50;1.27;;;25.70;48.10;;;;;;5030659;28;20789;-65
2022/07/31 09:50:58;;;;;;;1.87;1.20;;;25.60;48.30;;;;;;5010446;28;20472;-66
2022/07/31 09:53:40;;;;;;;1.27;1.17;;;25.60;48.30;;;;;;5010387;28;20943;-66
2022/07/31 09:56:31;;;;;;;1.30;1.23;;;25.60;48.40;;;;;;5010470;28;20456;-66
2022/07/31 09:59:01;;;;;;;3.87;1.67;;;25.60;48.60;;;;;;5015080;28;20993;-64
2022/07/31 10:01:35;;;;;;;2.80;1.58;;;25.50;48.90;;;;;;4992388;28;20430;-65
2022/07/31 10:04:06;;;;;;;4.13;1.43;;;25.50;49.10;;;;;;5007151;28;20289;-65
2022/07/31 10:06:35;;;;;;;1.97;1.10;;;25.50;49.10;;;;;;5010813;28;20482;-65
2022/07/31 10:09:06;;;;;;;3.20;1.63;;;25.50;49.00;;;;;;4996631;28;20453;-66
2022/07/31 10:11:55;;;;;;;1.80;1.10;;;25.40;48.80;;;;;;5021582;28;20917;-65
2022/07/31 10:14:28;;;;;;;1.47;1.37;;;25.50;48.70;;;;;;5020436;28;20441;-65
2022/07/31 10:17:03;;;;;;;2.60;1.73;;;25.50;48.80;;;;;;5007402;28;20460;-65
2022/07/31 10:20:03;;;;;;;1.20;1.10;;;25.50;48.80;;;;;;5005032;28;20582;-65
2022/07/31 10:22:48;;;;;;;2.00;1.60;;;25.50;48.70;;;;;;4991267;28;20520;-65
2022/07/31 10:25:24;;;;;;;1.33;1.23;;;25.50;48.60;;;;;;5010996;28;21037;-64
2022/07/31 10:27:55;;;;;;;2.63;1.50;;;25.50;48.40;;;;;;5015632;28;20451;-65
2022/07/31 10:30:25;;;;;;;1.77;1.43;;;25.50;48.20;;;;;;5012824;28;20494;-66
2022/07/31 10:32:59;;;;;;;1.90;1.17;;;25.50;48.20;;;;;;5012874;28;20865;-64
2022/07/31 10:35:28;;;;;;;2.17;2.03;;;25.50;48.20;;;;;;5011109;28;20473;-65
2022/07/31 10:38:24;;;;;;;1.13;1.03;;;25.50;48.00;;;;;;5016875;28;20469;-65
2022/07/31 10:41:12;;;;;;;1.37;1.27;;;25.60;48.10;;;;;;5014526;28;20481;-66
2022/07/31 10:43:47;;;;;;;1.83;1.40;;;25.50;48.00;;;;;;5024581;28;20462;-65
2022/07/31 10:46:36;;;;;;;1.50;1.40;;;25.60;48.00;;;;;;5030842;28;20519;-64
2022/07/31 10:49:17;;;;;;;1.90;1.70;;;25.60;47.90;;;;;;5015551;28;20468;-64
2022/07/31 10:52:05;;;;;;;1.30;1.20;;;25.60;47.80;;;;;;5014925;28;20445;-65
2022/07/31 10:54:57;;;;;;;7.57;2.30;;;25.60;47.90;;;;;;5009221;28;20473;-65
2022/07/31 10:57:44;;;;;;;3.87;1.77;;;25.60;47.80;;;;;;5030621;28;20436;-65
2022/07/31 11:00:44;;;;;;;3.80;1.80;;;25.70;47.80;;;;;;5023002;28;20460;-65
2022/07/31 11:03:38;;;;;;;2.47;1.53;;;25.70;47.80;;;;;;5040603;28;20887;-64
2022/07/31 11:06:40;;;;;;;2.07;1.60;;;25.60;47.50;;;;;;4959364;28;20469;-65
2022/07/31 11:09:43;;;;;;;2.27;1.50;;;25.60;47.50;;;;;;4974230;28;20484;-65
2022/07/31 11:12:38;;;;;;;2.80;1.83;;;25.60;47.30;;;;;;5013296;28;20536;-65
2022/07/31 11:15:29;;;;;;;3.50;1.60;;;25.60;47.40;;;;;;5013680;28;20471;-66
2022/07/31 11:18:18;;;;;;;1.40;1.30;;;25.70;47.60;;;;;;5014283;28;20440;-66
2022/07/31 11:21:05;;;;;;;2.00;1.90;;;25.60;47.40;;;;;;5017440;28;20571;-65
2022/07/31 11:23:54;;;;;;;2.30;1.50;;;25.70;47.30;;;;;;5013525;28;20480;-65
2022/07/31 11:26:31;;;;;;;3.20;1.77;;;25.70;47.20;;;;;;5019284;28;20479;-65
2022/07/31 11:29:10;;;;;;;2.77;1.47;;;25.70;47.20;;;;;;5012290;28;20440;-66
2022/07/31 11:32:13;;;;;;;1.77;1.60;;;25.70;47.20;;;;;;5015195;28;20445;-66
2022/07/31 11:34:46;;;;;;;1.47;1.37;;;25.70;47.30;;;;;;5008848;28;20539;-65
2022/07/31 11:37:18;;;;;;;2.10;2.00;;;25.70;47.30;;;;;;5014009;28;20445;-66
2022/07/31 11:39:46;;;;;;;2.50;1.90;;;25.70;47.30;;;;;;5007866;28;20488;-65
2022/07/31 11:42:20;;;;;;;1.73;1.63;;;25.70;47.50;;;;;;5015967;28;20417;-65
2022/07/31 11:45:03;;;;;;;2.40;1.73;;;25.90;47.40;;;;;;5013954;28;20807;-66
2022/07/31 11:47:38;;;;;;;1.90;1.50;;;26.00;47.30;;;;;;5023380;28;20921;-66
2022/07/31 11:50:29;;;;;;;2.43;1.70;;;26.00;47.20;;;;;;5016787;28;20510;-66
2022/07/31 11:53:05;;;;;;;1.83;1.73;;;26.00;46.70;;;;;;5013612;28;20456;-67
2022/07/31 11:55:45;;;;;;;2.00;1.90;;;26.10;46.70;;;;;;5009554;28;21052;-66
2022/07/31 11:58:14;;;;;;;6.70;2.57;;;26.20;46.50;;;;;;5016563;28;20495;-66
2022/07/31 12:00:48;;;;;;;2.40;1.83;;;26.20;46.80;;;;;;5013678;28;20469;-66
2022/07/31 12:03:17;;;;;;;2.00;1.90;;;26.20;47.10;;;;;;5013222;28;20440;-66
2022/07/31 12:05:46;;;;;;;2.00;1.90;;;26.30;46.60;;;;;;5010688;28;20468;-66
2022/07/31 12:08:15;;;;;;;2.47;2.27;;;26.30;47.00;;;;;;5013480;28;20487;-66
2022/07/31 12:10:45;;;;;;;2.27;2.07;;;26.30;47.20;;;;;;5019033;28;20523;-65
2022/07/31 12:13:14;;;;;;;2.27;2.07;;;26.30;47.20;;;;;;5013372;28;20826;-66
2022/07/31 12:15:56;;;;;;;2.83;2.60;;;26.30;47.10;;;;;;5023882;28;20467;-66
2022/07/31 12:18:25;;;;;;;2.80;2.60;;;26.30;47.20;;;;;;5009926;28;20448;-66
2022/07/31 12:20:56;;;;;;;2.83;2.63;;;26.30;47.60;;;;;;5018901;28;20523;-66
2022/07/31 12:23:25;;;;;;;4.50;2.67;;;26.30;47.20;;;;;;5011544;28;20495;-66
2022/07/31 12:26:10;;;;;;;2.43;2.10;;;26.30;47.10;;;;;;5007661;28;20931;-66
2022/07/31 12:28:39;;;;;;;5.05;2.60;;;26.30;48.20;;;;;;5010236;28;20995;-66
2022/07/31 12:31:08;;;;;;;3.23;2.70;;;26.20;47.90;;;;;;5011449;28;20225;-66
2022/07/31 12:33:44;;;;;;;2.53;2.33;;;26.10;48.10;;;;;;5012067;28;20448;-66
2022/07/31 12:36:14;;;;;;;2.40;2.20;;;26.00;48.10;;;;;;5012723;28;21057;-66
2022/07/31 12:38:42;;;;;;;2.73;2.53;;;26.00;48.10;;;;;;5012346;28;21093;-66
2022/07/31 12:41:13;;;;;;;2.00;1.90;;;26.00;48.10;;;;;;5018864;28;21003;-65
2022/07/31 12:43:41;;;;;;;2.37;2.27;;;25.90;48.10;;;;;;5005218;28;20448;-65
2022/07/31 12:46:35;;;;;;;2.77;2.53;;;25.90;48.10;;;;;;5009596;28;20957;-65
2022/07/31 12:49:04;;;;;;;2.90;2.43;;;25.90;48.10;;;;;;5009378;28;20934;-66
2022/07/31 12:51:33;;;;;;;2.70;2.50;;;25.90;48.00;;;;;;5011955;28;20881;-65
2022/07/31 12:54:14;;;;;;;1.80;1.70;;;25.90;48.00;;;;;;5012313;28;20441;-65
2022/07/31 12:56:43;;;;;;;4.10;2.47;;;25.90;48.10;;;;;;5003350;28;20935;-66
2022/07/31 12:59:12;;;;;;;2.00;1.90;;;25.90;48.10;;;;;;5011059;28;21066;-66
2022/07/31 13:01:41;;;;;;;2.57;2.37;;;25.90;48.10;;;;;;5011015;28;20486;-66
2022/07/31 13:04:11;;;;;;;4.57;2.77;;;25.90;48.00;;;;;;5021885;28;20457;-66
2022/07/31 13:06:50;;;;;;;3.37;2.57;;;25.90;48.00;;;;;;5004905;28;20523;-65
2022/07/31 13:09:19;;;;;;;3.67;3.37;;;25.90;48.00;;;;;;5008770;28;20469;-66
2022/07/31 13:11:47;;;;;;;2.60;2.40;;;25.90;47.90;;;;;;5011458;28;20430;-66
2022/07/31 13:14:20;;;;;;;4.83;3.13;;;25.90;49.20;;;;;;5009420;28;20473;-66
2022/07/31 13:16:51;;;;;;;2.07;1.97;;;25.90;48.10;;;;;;5011297;28;20440;-66
2022/07/31 13:19:19;;;;;;;2.50;2.40;;;25.90;48.00;;;;;;5009440;28;20458;-65
2022/07/31 13:21:48;;;;;;;2.67;2.47;;;25.90;47.90;;;;;;5011898;28;20812;-66
2022/07/31 13:24:18;;;;;;;2.30;2.10;;;25.90;48.00;;;;;;5021739;28;20485;-66
2022/07/31 13:26:46;;;;;;;2.63;2.40;;;25.90;47.90;;;;;;5012599;28;20421;-66
2022/07/31 13:29:14;;;;;;;2.33;2.13;;;25.90;47.90;;;;;;5012764;28;20866;-66